createdAt,value
2017-12-16T00:00:54.045Z,0.70
2017-12-16T00:03:20.384Z,0.70
2017-12-16T00:05:46.684Z,0.80
2017-12-16T00:08:13.059Z,0.80
2017-12-16T00:10:39.403Z,0.80
2017-12-16T00:13:05.703Z,0.80
2017-12-16T00:15:32.026Z,0.70
2017-12-16T00:17:58.662Z,0.80
2017-12-16T00:20:25.029Z,0.80
2017-12-16T00:22:51.330Z,0.80
2017-12-16T00:25:17.693Z,0.80
2017-12-16T00:27:44.016Z,0.80
2017-12-16T00:30:10.341Z,0.90
2017-12-16T00:32:36.620Z,0.90
2017-12-16T00:35:02.953Z,1.00
2017-12-16T00:37:29.276Z,1.00
2017-12-16T00:39:56.347Z,1.10
2017-12-16T00:42:22.683Z,1.10
2017-12-16T00:44:49.742Z,1.20
2017-12-16T00:47:16.046Z,1.20
2017-12-16T00:49:42.418Z,1.20
2017-12-16T00:52:08.736Z,1.30
2017-12-16T00:54:35.050Z,1.30
2017-12-16T00:57:01.382Z,1.30
2017-12-16T00:59:27.730Z,1.30
2017-12-16T01:01:54.055Z,1.30
2017-12-16T01:04:20.417Z,1.30
2017-12-16T01:06:46.756Z,1.30
2017-12-16T01:09:13.816Z,1.30
2017-12-16T01:11:40.919Z,1.30
2017-12-16T01:14:08.250Z,1.30
2017-12-16T01:16:34.562Z,1.30
2017-12-16T01:19:00.900Z,1.30
2017-12-16T01:21:27.253Z,1.40
2017-12-16T01:23:54.333Z,1.40
2017-12-16T01:26:20.652Z,1.40
2017-12-16T01:28:46.990Z,1.50
2017-12-16T01:31:13.361Z,1.50
2017-12-16T01:33:52.592Z,1.50
2017-12-16T01:36:31.217Z,1.50
2017-12-16T01:38:57.512Z,1.50
2017-12-16T01:41:23.844Z,1.50
2017-12-16T01:43:50.213Z,1.50
2017-12-16T01:46:16.501Z,1.50
2017-12-16T01:48:42.836Z,1.50
2017-12-16T01:51:09.183Z,1.60
2017-12-16T01:53:36.279Z,1.60
2017-12-16T01:56:02.610Z,1.60
2017-12-16T01:58:28.954Z,1.60
2017-12-16T02:00:55.266Z,1.60
2017-12-16T02:03:21.611Z,1.60
2017-12-16T02:05:47.945Z,1.70
2017-12-16T02:08:14.285Z,1.70
2017-12-16T02:10:40.605Z,1.70
2017-12-16T02:13:06.945Z,1.70
2017-12-16T02:15:33.327Z,1.70
2017-12-16T02:17:59.658Z,1.70
2017-12-16T02:20:26.010Z,1.70
2017-12-16T02:22:52.320Z,1.70
2017-12-16T02:25:18.656Z,1.70
2017-12-16T02:27:45.011Z,1.70
2017-12-16T02:30:11.330Z,1.70
2017-12-16T02:32:37.668Z,1.70
2017-12-16T02:35:04.029Z,1.70
2017-12-16T02:37:30.340Z,1.70
2017-12-16T02:39:56.689Z,1.70
2017-12-16T02:42:23.029Z,1.70
2017-12-16T02:44:49.359Z,1.70
2017-12-16T02:47:15.709Z,1.80
2017-12-16T02:49:42.778Z,1.80
2017-12-16T02:52:09.100Z,1.70
2017-12-16T02:54:35.453Z,1.80
2017-12-16T02:57:01.787Z,1.80
2017-12-16T02:59:28.131Z,1.80
2017-12-16T03:01:54.426Z,1.80
2017-12-16T03:04:21.477Z,1.80
2017-12-16T03:06:47.846Z,1.80
2017-12-16T03:09:14.199Z,1.80
2017-12-16T03:11:40.538Z,1.80
2017-12-16T03:14:06.890Z,1.80
2017-12-16T03:16:33.941Z,1.90
2017-12-16T03:19:00.272Z,1.90
2017-12-16T03:21:27.342Z,1.80
2017-12-16T03:23:53.676Z,1.80
2017-12-16T03:26:20.002Z,1.80
2017-12-16T03:28:46.354Z,1.80
2017-12-16T03:31:12.645Z,1.80
2017-12-16T03:33:38.991Z,1.80
2017-12-16T03:36:05.359Z,1.80
2017-12-16T03:38:31.689Z,1.80
2017-12-16T03:40:57.994Z,1.80
2017-12-16T03:43:24.365Z,1.90
2017-12-16T03:45:50.706Z,1.90
2017-12-16T03:48:17.026Z,1.80
2017-12-16T03:50:43.380Z,1.90
2017-12-16T03:53:10.434Z,1.90
2017-12-16T03:55:36.845Z,1.80
2017-12-16T03:58:03.170Z,1.90
2017-12-16T04:00:29.499Z,1.90
2017-12-16T04:02:55.849Z,1.90
2017-12-16T04:05:22.898Z,1.90
2017-12-16T04:07:49.967Z,1.90
2017-12-16T04:10:16.364Z,1.90
2017-12-16T04:12:42.701Z,1.90
2017-12-16T04:15:09.097Z,1.90
2017-12-16T04:17:35.413Z,1.90
2017-12-16T04:20:01.787Z,2.00
2017-12-16T04:22:28.163Z,2.00
2017-12-16T04:24:54.547Z,2.00
2017-12-16T04:27:20.917Z,2.00
2017-12-16T04:29:47.311Z,2.00
2017-12-16T04:32:14.378Z,2.00
2017-12-16T04:34:41.532Z,2.00
2017-12-16T04:37:08.593Z,2.00
2017-12-16T04:39:34.935Z,2.00
2017-12-16T04:42:01.295Z,2.00
2017-12-16T04:44:27.649Z,2.00
2017-12-16T04:46:54.011Z,1.90
2017-12-16T04:49:20.319Z,1.90
2017-12-16T04:51:47.368Z,1.80
2017-12-16T04:54:14.439Z,1.80
2017-12-16T04:56:41.489Z,1.80
2017-12-16T04:59:08.134Z,1.80
2017-12-16T05:01:34.422Z,1.80
2017-12-16T05:04:00.703Z,1.80
2017-12-16T05:06:27.015Z,1.90
2017-12-16T05:08:54.102Z,2.60
2017-12-16T05:11:20.390Z,2.60
2017-12-16T05:13:47.444Z,3.70
2017-12-16T05:16:13.725Z,3.70
2017-12-16T05:18:40.028Z,4.10
2017-12-16T05:21:06.363Z,4.40
2017-12-16T05:23:32.646Z,4.70
2017-12-16T05:25:59.687Z,5.20
2017-12-16T05:28:26.046Z,5.20
2017-12-16T05:30:52.321Z,5.40
2017-12-16T05:33:18.580Z,5.60
2017-12-16T05:35:44.891Z,5.80
2017-12-16T05:38:11.183Z,6.00
2017-12-16T05:40:37.489Z,6.10
2017-12-16T05:43:04.505Z,6.10
2017-12-16T05:45:30.820Z,6.10
2017-12-16T05:47:57.131Z,6.10
2017-12-16T05:50:23.522Z,6.10
2017-12-16T05:52:50.890Z,6.40
2017-12-16T05:55:17.153Z,6.40
2017-12-16T05:57:43.476Z,6.50
2017-12-16T06:00:09.799Z,6.60
2017-12-16T06:02:36.832Z,5.70
2017-12-16T06:05:03.177Z,5.70
2017-12-16T06:07:29.473Z,5.20
2017-12-16T06:09:56.522Z,4.60
2017-12-16T06:12:23.574Z,4.40
2017-12-16T06:14:49.865Z,4.40
2017-12-16T06:17:16.180Z,4.40
2017-12-16T06:19:42.509Z,4.30
2017-12-16T06:22:08.826Z,4.30
2017-12-16T06:24:35.218Z,4.10
2017-12-16T06:27:01.535Z,3.90
2017-12-16T06:29:27.830Z,3.80
2017-12-16T06:31:54.190Z,3.70
2017-12-16T06:34:20.916Z,3.70
2017-12-16T06:36:47.403Z,3.50
2017-12-16T06:39:13.779Z,3.40
2017-12-16T06:41:40.107Z,3.20
2017-12-16T06:44:06.422Z,3.10
2017-12-16T06:46:32.756Z,3.00
2017-12-16T06:48:59.075Z,2.90
2017-12-16T06:51:25.399Z,2.80
2017-12-16T06:53:51.705Z,2.70
2017-12-16T06:56:18.009Z,2.70
2017-12-16T06:58:44.302Z,2.60
2017-12-16T07:01:10.643Z,2.60
2017-12-16T07:03:36.940Z,2.60
2017-12-16T07:06:03.236Z,2.50
2017-12-16T07:08:29.536Z,2.50
2017-12-16T07:10:55.880Z,2.50
2017-12-16T07:13:22.202Z,2.40
2017-12-16T07:15:48.524Z,2.40
2017-12-16T07:18:14.824Z,2.40
2017-12-16T07:20:41.098Z,2.30
2017-12-16T07:23:07.413Z,2.30
2017-12-16T07:25:33.712Z,2.30
2017-12-16T07:28:00.044Z,2.30
2017-12-16T07:30:26.364Z,2.30
2017-12-16T07:32:52.682Z,2.30
2017-12-16T07:35:19.762Z,2.30
2017-12-16T07:37:46.493Z,2.40
2017-12-16T07:40:12.733Z,2.40
2017-12-16T07:42:39.040Z,2.40
2017-12-16T07:45:05.353Z,2.40
2017-12-16T07:47:32.381Z,2.50
2017-12-16T07:49:58.732Z,2.50
2017-12-16T07:52:25.769Z,2.50
2017-12-16T07:54:52.020Z,2.50
2017-12-16T07:57:18.356Z,2.50
2017-12-16T07:59:44.658Z,2.50
2017-12-16T08:02:11.736Z,2.60
2017-12-16T08:04:38.103Z,2.60
2017-12-16T08:07:04.413Z,2.60
2017-12-16T08:09:30.722Z,2.60
2017-12-16T08:11:57.009Z,2.60
2017-12-16T08:14:23.302Z,2.70
2017-12-16T08:16:49.596Z,2.70
2017-12-16T08:19:16.628Z,2.70
2017-12-16T08:21:42.939Z,2.70
2017-12-16T08:24:09.205Z,2.70
2017-12-16T08:26:36.354Z,2.80
2017-12-16T08:29:03.384Z,2.80
2017-12-16T08:31:30.417Z,2.80
2017-12-16T08:33:56.705Z,2.80
2017-12-16T08:36:23.013Z,2.90
2017-12-16T08:38:50.011Z,3.00
2017-12-16T08:41:16.289Z,3.00
2017-12-16T08:43:42.597Z,3.10
2017-12-16T08:46:08.879Z,3.20
2017-12-16T08:48:35.174Z,3.20
2017-12-16T08:51:01.468Z,3.20
2017-12-16T08:53:27.742Z,3.20
2017-12-16T08:55:54.037Z,3.20
2017-12-16T08:58:20.326Z,3.10
2017-12-16T09:00:46.654Z,3.10
2017-12-16T09:03:12.941Z,3.20
2017-12-16T09:05:39.945Z,3.30
2017-12-16T09:08:06.253Z,3.20
2017-12-16T09:10:32.546Z,3.30
2017-12-16T09:12:58.836Z,3.30
2017-12-16T09:15:25.079Z,3.40
2017-12-16T09:17:51.326Z,3.40
2017-12-16T09:20:17.615Z,3.40
2017-12-16T09:22:43.877Z,3.50
2017-12-16T09:25:10.198Z,3.50
2017-12-16T09:27:36.454Z,3.50
2017-12-16T09:30:03.542Z,3.60
2017-12-16T09:32:29.809Z,3.60
2017-12-16T09:34:56.107Z,3.60
2017-12-16T09:37:22.406Z,3.70
2017-12-16T09:39:48.723Z,3.70
2017-12-16T09:42:15.757Z,3.70
2017-12-16T09:44:42.779Z,3.60
2017-12-16T09:47:09.077Z,3.60
2017-12-16T09:49:35.347Z,3.60
2017-12-16T09:52:01.643Z,3.60
2017-12-16T09:54:27.920Z,3.60
2017-12-16T09:56:54.199Z,3.60
2017-12-16T09:59:20.833Z,3.60
2017-12-16T10:01:47.149Z,3.70
2017-12-16T10:04:13.459Z,3.70
2017-12-16T10:06:39.781Z,3.70
2017-12-16T10:09:06.077Z,3.70
2017-12-16T10:11:32.392Z,3.60
2017-12-16T10:13:58.676Z,3.60
2017-12-16T10:16:25.713Z,3.60
2017-12-16T10:18:51.999Z,3.60
2017-12-16T10:21:18.305Z,3.60
2017-12-16T10:23:44.654Z,3.60
2017-12-16T10:26:11.035Z,3.70
2017-12-16T10:28:39.578Z,3.70
2017-12-16T10:31:08.198Z,3.80
2017-12-16T10:33:45.551Z,3.80
2017-12-16T10:42:13.864Z,3.80
2017-12-16T10:44:40.127Z,3.90
2017-12-16T10:47:07.247Z,3.90
2017-12-16T10:49:33.572Z,3.80
2017-12-16T10:51:59.907Z,3.80
2017-12-16T11:01:13.042Z,3.80
2017-12-16T11:03:51.567Z,3.70
2017-12-16T11:06:26.116Z,3.70
2017-12-16T11:09:03.713Z,3.70
2017-12-16T11:11:38.145Z,3.80
2017-12-16T11:14:27.313Z,3.80
2017-12-16T11:16:56.108Z,4.00
2017-12-16T11:19:26.503Z,4.40
2017-12-16T11:21:55.591Z,4.50
2017-12-16T11:24:22.659Z,4.50
2017-12-16T11:27:17.306Z,4.50
2017-12-16T11:30:08.004Z,4.50
2017-12-16T11:42:07.910Z,4.70
2017-12-16T11:44:37.421Z,4.60
2017-12-16T11:50:00.287Z,4.60
2017-12-16T11:56:12.426Z,4.60
2017-12-16T11:58:38.773Z,4.70
2017-12-16T12:01:05.873Z,4.60
2017-12-16T12:03:32.304Z,4.60
2017-12-16T12:05:58.657Z,4.60
2017-12-16T12:08:25.038Z,4.70
2017-12-16T12:10:52.154Z,4.70
2017-12-16T12:13:25.366Z,4.70
2017-12-16T12:15:51.653Z,4.70
2017-12-16T12:18:18.775Z,4.70
2017-12-16T12:20:54.840Z,4.70
2017-12-16T12:23:21.180Z,4.70
2017-12-16T12:25:47.559Z,4.60
2017-12-16T12:28:13.854Z,4.50
2017-12-16T12:30:40.195Z,4.40
2017-12-16T12:33:07.569Z,4.40
2017-12-16T12:35:33.934Z,4.30
2017-12-16T12:38:00.301Z,4.40
2017-12-16T12:40:26.587Z,4.40
2017-12-16T12:42:52.865Z,4.40
2017-12-16T12:45:19.207Z,4.50
2017-12-16T12:47:45.507Z,4.60
2017-12-16T12:50:11.805Z,4.60
2017-12-16T12:52:38.113Z,4.60
2017-12-16T12:55:04.429Z,4.70
2017-12-16T12:57:31.486Z,4.70
2017-12-16T12:59:58.533Z,4.70
2017-12-16T13:02:24.842Z,4.70
2017-12-16T13:04:51.114Z,4.80
2017-12-16T13:07:17.416Z,4.80
2017-12-16T13:09:43.684Z,4.80
2017-12-16T13:12:10.006Z,4.70
2017-12-16T13:14:36.321Z,4.70
2017-12-16T13:17:02.652Z,4.70
2017-12-16T13:19:28.982Z,4.60
2017-12-16T13:21:56.010Z,4.40
2017-12-16T13:24:22.308Z,4.30
2017-12-16T13:26:48.594Z,4.30
2017-12-16T13:29:14.910Z,4.20
2017-12-16T13:31:41.193Z,4.00
2017-12-16T13:34:07.511Z,3.90
2017-12-16T13:36:33.803Z,3.90
2017-12-16T13:39:00.930Z,3.70
2017-12-16T13:41:27.362Z,3.70
2017-12-16T13:43:53.688Z,3.70
2017-12-16T13:46:20.039Z,3.70
2017-12-16T13:48:46.350Z,3.70
2017-12-16T13:51:12.668Z,3.70
2017-12-16T13:53:39.719Z,3.80
2017-12-16T13:56:06.810Z,3.90
2017-12-16T13:58:33.396Z,3.90
2017-12-16T14:00:59.826Z,3.90
2017-12-16T14:03:26.189Z,3.90
2017-12-16T14:05:52.553Z,3.80
2017-12-16T14:08:19.604Z,3.80
2017-12-16T14:10:45.887Z,3.80
2017-12-16T14:13:12.212Z,3.80
2017-12-16T14:15:38.546Z,3.80
2017-12-16T14:18:04.863Z,3.80
2017-12-16T14:20:31.132Z,3.90
2017-12-16T14:22:58.218Z,3.90
2017-12-16T14:25:24.516Z,3.80
2017-12-16T14:27:50.819Z,3.80
2017-12-16T14:30:17.142Z,3.80
2017-12-16T14:32:43.471Z,3.80
2017-12-16T14:35:10.541Z,3.70
2017-12-16T14:37:36.885Z,3.70
2017-12-16T14:40:03.301Z,3.70
2017-12-16T14:42:30.348Z,3.60
2017-12-16T14:44:56.734Z,3.60
2017-12-16T14:47:23.298Z,3.60
2017-12-16T14:49:49.654Z,3.60
2017-12-16T14:52:15.975Z,3.60
2017-12-16T14:54:42.286Z,3.60
2017-12-16T14:57:08.597Z,3.60
2017-12-16T14:59:34.914Z,3.60
2017-12-16T15:02:01.313Z,3.60
2017-12-16T15:04:28.332Z,3.50
2017-12-16T15:06:54.650Z,3.50
2017-12-16T15:09:20.977Z,3.50
2017-12-16T15:11:48.612Z,3.50
2017-12-16T15:14:15.002Z,3.50
2017-12-16T15:16:41.283Z,3.50
2017-12-16T15:19:07.597Z,3.50
2017-12-16T15:21:33.909Z,3.50
2017-12-16T15:24:00.970Z,3.50
2017-12-16T15:26:28.003Z,3.50
2017-12-16T15:28:54.394Z,3.50
2017-12-16T15:31:20.708Z,3.50
2017-12-16T15:33:48.080Z,3.20
2017-12-16T15:36:15.133Z,2.90
2017-12-16T15:38:42.201Z,2.70
2017-12-16T15:41:09.312Z,2.50
2017-12-16T15:43:35.622Z,2.50
2017-12-16T15:46:01.943Z,2.40
2017-12-16T15:48:29.322Z,2.30
2017-12-16T15:50:56.410Z,2.20
2017-12-16T15:53:22.706Z,2.20
2017-12-16T15:55:49.786Z,2.20
2017-12-16T15:58:16.093Z,2.20
2017-12-16T16:00:42.789Z,2.20
2017-12-16T16:03:09.230Z,2.10
2017-12-16T16:05:35.563Z,2.10
2017-12-16T16:08:01.903Z,2.10
2017-12-16T16:10:29.013Z,2.10
2017-12-16T16:12:55.342Z,2.10
2017-12-16T16:15:21.697Z,2.10
2017-12-16T16:17:47.998Z,2.10
2017-12-16T16:20:15.079Z,2.10
2017-12-16T16:22:41.446Z,2.10
2017-12-16T16:25:07.805Z,2.10
2017-12-16T16:27:34.210Z,2.00
2017-12-16T16:30:00.508Z,2.00
2017-12-16T16:32:26.855Z,2.00
2017-12-16T16:34:53.170Z,2.00
2017-12-16T16:37:19.517Z,2.00
2017-12-16T16:39:45.840Z,1.90
2017-12-16T16:42:12.177Z,1.90
2017-12-16T16:44:38.509Z,1.80
2017-12-16T16:47:04.817Z,1.70
2017-12-16T16:49:31.138Z,1.70
2017-12-16T16:51:57.555Z,1.70
2017-12-16T16:54:23.906Z,1.70
2017-12-16T16:56:50.188Z,1.60
2017-12-16T16:59:17.204Z,1.60
2017-12-16T17:01:43.511Z,1.60
2017-12-16T17:04:09.833Z,1.60
2017-12-16T17:06:36.914Z,1.60
2017-12-16T17:09:04.133Z,1.60
2017-12-16T17:11:30.486Z,1.50
2017-12-16T17:13:56.811Z,1.50
2017-12-16T17:16:23.173Z,1.60
2017-12-16T17:18:49.524Z,1.60
2017-12-16T17:21:16.566Z,1.60
2017-12-16T17:23:42.925Z,1.60
2017-12-16T17:26:09.212Z,1.60
2017-12-16T17:28:36.254Z,1.60
2017-12-16T17:31:02.598Z,1.50
2017-12-16T17:33:28.968Z,1.60
2017-12-16T17:35:55.317Z,1.60
2017-12-16T17:38:21.674Z,1.60
2017-12-16T17:40:48.008Z,1.60
2017-12-16T17:43:14.577Z,1.60
2017-12-16T17:45:40.933Z,1.60
2017-12-16T17:48:08.070Z,1.50
2017-12-16T17:50:34.401Z,1.60
2017-12-16T17:53:00.765Z,1.50
2017-12-16T17:55:27.130Z,1.50
2017-12-16T17:57:54.173Z,1.50
2017-12-16T18:00:20.509Z,1.50
2017-12-16T18:02:46.903Z,1.50
2017-12-16T18:05:17.002Z,1.50
2017-12-16T18:07:44.049Z,1.50
2017-12-16T18:10:10.725Z,1.50
2017-12-16T18:12:37.814Z,1.50
2017-12-16T18:15:04.139Z,1.50
2017-12-16T18:17:30.487Z,1.60
2017-12-16T18:19:56.816Z,1.50
2017-12-16T18:22:23.891Z,1.50
2017-12-16T18:24:50.230Z,1.50
2017-12-16T18:27:16.615Z,1.50
2017-12-16T18:29:42.962Z,1.50
2017-12-16T18:32:09.286Z,1.50
2017-12-16T18:34:35.650Z,1.50
2017-12-16T18:37:02.033Z,1.50
2017-12-16T18:39:29.066Z,1.50
2017-12-16T18:41:55.383Z,1.50
2017-12-16T18:44:21.732Z,1.50
2017-12-16T18:46:48.075Z,1.50
2017-12-16T18:49:14.389Z,1.50
2017-12-16T18:51:40.764Z,1.50
2017-12-16T18:54:07.191Z,1.50
2017-12-16T18:56:33.602Z,1.50
2017-12-16T18:58:59.980Z,1.50
2017-12-16T19:01:26.285Z,1.50
2017-12-16T19:03:53.408Z,1.50
2017-12-16T19:06:19.771Z,1.50
2017-12-16T19:08:47.162Z,1.60
2017-12-16T19:11:13.496Z,1.50
2017-12-16T19:13:40.654Z,1.60
2017-12-16T19:16:07.759Z,1.60
2017-12-16T19:18:34.117Z,1.60
2017-12-16T19:21:00.536Z,1.60
2017-12-16T19:23:26.938Z,1.60
2017-12-16T19:25:54.058Z,1.60
2017-12-16T19:28:20.470Z,1.60
2017-12-16T19:30:46.874Z,1.50
2017-12-16T19:33:13.173Z,1.50
2017-12-16T19:35:39.629Z,1.50
2017-12-16T19:38:06.769Z,1.50
2017-12-16T19:40:33.109Z,1.50
2017-12-16T19:42:59.461Z,1.50
2017-12-16T19:45:25.841Z,1.50
2017-12-16T19:47:52.227Z,1.60
2017-12-16T19:50:19.420Z,1.60
2017-12-16T19:52:45.824Z,1.60
2017-12-16T19:55:12.264Z,1.60
2017-12-16T19:57:38.664Z,1.60
2017-12-16T20:00:05.195Z,1.60
2017-12-16T20:02:31.820Z,1.60
2017-12-16T20:04:58.491Z,1.60
2017-12-16T20:07:25.196Z,1.60
2017-12-16T20:09:51.800Z,1.60
2017-12-16T20:12:18.466Z,1.60
2017-12-16T20:14:45.898Z,1.60
2017-12-16T20:17:12.584Z,1.60
2017-12-16T20:19:40.068Z,1.60
2017-12-16T20:22:07.536Z,1.60
2017-12-16T20:24:35.024Z,1.60
2017-12-16T20:27:01.768Z,1.60
2017-12-16T20:29:28.795Z,1.60
2017-12-16T20:31:56.248Z,1.70
2017-12-16T20:34:22.925Z,1.70
2017-12-16T20:36:50.434Z,1.60
2017-12-16T20:39:17.088Z,1.60
2017-12-16T20:41:43.800Z,1.60
2017-12-16T20:44:11.223Z,1.50
2017-12-16T20:46:37.987Z,1.50
2017-12-16T20:49:04.688Z,1.50
2017-12-16T20:51:32.118Z,1.50
2017-12-16T20:53:58.823Z,1.40
2017-12-16T20:56:25.552Z,1.50
2017-12-16T20:58:52.942Z,1.50
2017-12-16T21:01:19.864Z,1.50
2017-12-16T21:03:46.467Z,1.50
2017-12-16T21:06:13.105Z,1.50
2017-12-16T21:08:39.798Z,1.50
2017-12-16T21:11:06.511Z,1.50
2017-12-16T21:13:33.252Z,1.50
2017-12-16T21:15:59.993Z,1.50
2017-12-16T21:18:26.718Z,1.40
2017-12-16T21:20:53.339Z,1.40
2017-12-16T21:23:21.045Z,1.40
2017-12-16T21:25:47.464Z,1.40
2017-12-16T21:28:13.855Z,1.40
2017-12-16T21:30:40.257Z,1.40
2017-12-16T21:33:06.703Z,1.40
2017-12-16T21:35:33.097Z,1.40
2017-12-16T21:37:59.429Z,1.40
2017-12-16T21:40:25.763Z,1.40
2017-12-16T21:42:52.113Z,1.40
2017-12-16T21:45:18.493Z,1.40
2017-12-16T21:47:45.584Z,1.40
2017-12-16T21:50:11.961Z,1.40
2017-12-16T21:52:38.296Z,1.40
2017-12-16T21:55:04.632Z,1.40
2017-12-16T21:57:31.004Z,1.50
2017-12-16T21:59:57.353Z,1.50
2017-12-16T22:02:23.753Z,1.50
2017-12-16T22:04:50.096Z,1.50
2017-12-16T22:07:16.414Z,1.50
2017-12-16T22:09:43.476Z,1.50
2017-12-16T22:12:09.838Z,1.50
2017-12-16T22:14:36.114Z,1.50
2017-12-16T22:17:02.446Z,1.50
2017-12-16T22:19:28.751Z,1.50
2017-12-16T22:21:55.718Z,1.50
2017-12-16T22:24:21.972Z,1.40
2017-12-16T22:26:48.348Z,1.40
2017-12-16T22:29:14.711Z,1.40
2017-12-16T22:31:40.979Z,1.40
2017-12-16T22:34:08.007Z,1.30
2017-12-16T22:36:34.319Z,1.40
2017-12-16T22:39:00.673Z,1.30
2017-12-16T22:41:26.988Z,1.30
2017-12-16T22:43:53.332Z,1.30
2017-12-16T22:46:19.659Z,1.30
2017-12-16T22:48:46.008Z,1.30
2017-12-16T22:51:12.313Z,1.30
2017-12-16T22:53:38.599Z,1.30
2017-12-16T22:56:04.953Z,1.40
2017-12-16T22:58:31.990Z,1.40
2017-12-16T23:00:58.289Z,1.40
2017-12-16T23:03:24.643Z,1.40
2017-12-16T23:05:50.962Z,1.40
2017-12-16T23:08:17.281Z,1.40
2017-12-16T23:10:43.613Z,1.40
2017-12-16T23:13:09.892Z,1.30
2017-12-16T23:15:36.220Z,1.40
2017-12-16T23:18:02.515Z,1.30
2017-12-16T23:20:29.572Z,1.40
2017-12-16T23:22:56.634Z,1.40
2017-12-16T23:25:23.702Z,1.40
2017-12-16T23:27:50.012Z,1.30
2017-12-16T23:30:16.322Z,1.40
2017-12-16T23:32:42.656Z,1.40
2017-12-16T23:35:08.992Z,1.40
2017-12-16T23:37:35.335Z,1.40
2017-12-16T23:40:01.639Z,1.40
2017-12-16T23:42:27.979Z,1.40
2017-12-16T23:44:54.253Z,1.40
2017-12-16T23:47:20.644Z,1.40
2017-12-16T23:49:46.948Z,1.50
2017-12-16T23:52:13.273Z,1.50
2017-12-16T23:54:39.583Z,1.50
2017-12-16T23:57:05.941Z,1.50
2017-12-16T23:59:33.012Z,1.40
